Time;durP1;ratioP1;P1;durP2;ratioP2;P2;SDS_P1;SDS_P2;PMS_P1;PMS_P2;Temp;Humidity;BMP_temperature;BMP_pressure;BME280_temperature;BME280_humidity;BME280_pressure;Samples;Min_cycle;Max_cycle;Signal;HPM_P1;HPM_P2
2022/12/28 00:00:55;;;;;;;;;;;7.20;99.90;;;;;;5092714;28;20057;-79
2022/12/28 00:03:20;;;;;;;;;;;7.20;99.90;;;;;;5098606;28;20060;-80
2022/12/28 00:05:46;;;;;;;;;;;7.20;99.90;;;;;;5094449;28;20222;-80
2022/12/28 00:08:11;;;;;;;;;;;7.20;99.90;;;;;;5099032;28;19920;-79
2022/12/28 00:10:37;;;;;;;;;;;7.20;99.90;;;;;;5112479;28;19915;-79
2022/12/28 00:13:03;;;;;;;;;;;7.20;99.90;;;;;;5107157;28;20049;-79
2022/12/28 00:15:28;;;;;;;;;;;7.20;99.90;;;;;;5110250;28;19915;-79
2022/12/28 00:17:56;;;;;;;;;;;7.10;99.90;;;;;;5092508;28;19915;-79
2022/12/28 00:20:21;;;;;;;;;;;7.10;99.90;;;;;;5092885;28;19908;-80
2022/12/28 00:22:47;;;;;;;;;;;7.10;99.90;;;;;;5091924;28;19912;-79
2022/12/28 00:25:12;;;;;;;;;;;7.10;99.90;;;;;;5092161;28;19974;-80
2022/12/28 00:27:38;;;;;;;;;;;7.00;99.90;;;;;;5091330;28;20253;-80
2022/12/28 00:30:04;;;;;;;;;;;7.00;99.90;;;;;;5093839;28;19927;-79
2022/12/28 00:32:29;;;;;;;;;;;7.10;99.90;;;;;;5120087;28;19900;-83
2022/12/28 00:34:55;;;;;;;;;;;7.00;99.90;;;;;;5122489;28;19969;-80
2022/12/28 00:37:20;;;;;;;;;;;7.00;99.90;;;;;;5134994;27;19911;-84
2022/12/28 00:39:46;;;;;;;;;;;7.00;99.90;;;;;;5117167;28;20114;-83
2022/12/28 00:42:11;;;;;;;;;;;7.00;99.90;;;;;;5136248;27;19919;-82
2022/12/28 00:44:37;;;;;;;;;;;7.00;99.90;;;;;;5115028;28;19951;-82
2022/12/28 00:47:03;;;;;;;;;;;6.90;99.90;;;;;;5112534;28;19916;-82
2022/12/28 00:49:28;;;;;;;;;;;6.80;99.90;;;;;;5111785;28;19919;-82
2022/12/28 00:51:54;;;;;;;;;;;6.80;99.90;;;;;;5112378;28;20293;-82
2022/12/28 00:54:19;;;;;;;;;;;6.80;99.90;;;;;;5112220;28;19916;-82
2022/12/28 00:56:45;;;;;;;;;;;6.80;99.90;;;;;;5093305;28;19912;-82
2022/12/28 00:59:10;;;;;;;;;;;6.80;99.90;;;;;;5112488;28;19934;-82
2022/12/28 01:01:36;;;;;;;;;;;6.80;99.90;;;;;;5112432;28;19908;-82
2022/12/28 01:04:02;;;;;;;;;;;6.70;99.90;;;;;;5112353;28;19915;-82
2022/12/28 01:06:28;;;;;;;;;;;6.70;99.90;;;;;;5111909;28;20001;-85
2022/12/28 01:08:54;;;;;;;;;;;6.70;99.90;;;;;;5112503;28;19916;-83
2022/12/28 01:11:23;;;;;;;;;;;6.70;99.90;;;;;;5112077;28;20249;-83
2022/12/28 01:13:50;;;;;;;;;;;6.70;99.90;;;;;;5091318;28;19912;-83
2022/12/28 01:16:16;;;;;;;;;;;6.70;99.90;;;;;;5091836;28;19916;-82
2022/12/28 01:18:42;;;;;;;;;;;6.70;99.90;;;;;;5091169;28;19908;-83
2022/12/28 01:21:13;;;;;;;;;;;6.70;99.90;;;;;;5091713;28;19914;-81
2022/12/28 01:23:39;;;;;;;;;;;6.60;99.90;;;;;;5091161;28;20338;-81
2022/12/28 01:26:05;;;;;;;;;;;6.70;99.90;;;;;;5092172;28;19965;-81
2022/12/28 01:28:30;;;;;;;;;;;6.70;99.90;;;;;;5091231;28;19916;-84
2022/12/28 01:30:56;;;;;;;;;;;6.70;99.90;;;;;;5092244;28;19908;-81
2022/12/28 01:33:21;;;;;;;;;;;6.70;99.90;;;;;;5091626;28;20007;-81
2022/12/28 01:35:47;;;;;;;;;;;6.60;99.90;;;;;;5095924;28;20279;-81
2022/12/28 01:38:12;;;;;;;;;;;6.60;99.90;;;;;;5112484;28;19908;-81
2022/12/28 01:40:41;;;;;;;;;;;6.60;99.90;;;;;;5111288;28;19907;-82
2022/12/28 01:43:12;;;;;;;;;;;6.60;99.90;;;;;;5112315;28;19927;-82
2022/12/28 01:45:37;;;;;;;;;;;6.60;99.90;;;;;;5093342;28;19914;-83
2022/12/28 01:48:03;;;;;;;;;;;6.60;99.90;;;;;;5106120;28;19920;-81
2022/12/28 01:50:28;;;;;;;;;;;6.50;99.90;;;;;;5091527;28;19908;-82
2022/12/28 01:52:56;;;;;;;;;;;6.50;99.90;;;;;;5091808;28;19908;-82
2022/12/28 01:55:24;;;;;;;;;;;6.50;99.90;;;;;;5092135;28;19912;-82
2022/12/28 01:57:54;;;;;;;;;;;6.50;99.90;;;;;;5094622;28;20060;-82
2022/12/28 02:00:19;;;;;;;;;;;6.50;99.90;;;;;;5095409;28;20371;-83
2022/12/28 02:03:03;;;;;;;;;;;6.50;99.90;;;;;;5095232;28;19916;-82
2022/12/28 02:05:31;;;;;;;;;;;6.50;99.90;;;;;;5095493;28;19914;-82
2022/12/28 02:08:06;;;;;;;;;;;6.50;99.90;;;;;;5095355;28;20345;-82
2022/12/28 02:10:32;;;;;;;;;;;6.50;99.90;;;;;;5095284;28;19931;-86
2022/12/28 02:12:58;;;;;;;;;;;6.50;99.90;;;;;;5095025;28;19976;-82
2022/12/28 02:15:23;;;;;;;;;;;6.50;99.90;;;;;;5095205;28;20275;-82
2022/12/28 02:17:49;;;;;;;;;;;6.50;99.90;;;;;;5094603;28;19915;-83
2022/12/28 02:20:16;;;;;;;;;;;6.50;99.90;;;;;;5095293;28;20008;-81
2022/12/28 02:23:07;;;;;;;;;;;6.60;99.90;;;;;;5094764;28;19908;-82
2022/12/28 02:25:33;;;;;;;;;;;6.50;99.90;;;;;;5094596;28;20221;-84
2022/12/28 02:27:58;;;;;;;;;;;6.60;99.90;;;;;;5093918;28;19992;-81
2022/12/28 02:30:24;;;;;;;;;;;6.60;99.90;;;;;;5076350;28;19908;-82
2022/12/28 02:32:55;;;;;;;;;;;6.60;99.90;;;;;;5094314;28;19989;-82
2022/12/28 02:35:24;;;;;;;;;;;6.60;99.90;;;;;;5095012;28;19919;-83
2022/12/28 02:37:53;;;;;;;;;;;6.60;99.90;;;;;;5093998;28;19909;-82
2022/12/28 02:40:23;;;;;;;;;;;6.60;99.90;;;;;;5094201;28;20225;-82
2022/12/28 02:42:50;;;;;;;;;;;6.70;99.90;;;;;;5094217;28;19908;-81
2022/12/28 02:51:45;;;;;;;;;;;6.70;99.90;;;;;;5094071;28;20296;-81
2022/12/28 02:57:28;;;;;;;;;;;6.60;99.90;;;;;;5094095;28;20234;-81
2022/12/28 03:00:01;;;;;;;;;;;6.60;99.90;;;;;;5075523;28;19912;-82
2022/12/28 03:02:29;;;;;;;;;;;6.60;99.90;;;;;;5094254;28;19919;-81
2022/12/28 03:05:12;;;;;;;;;;;6.60;99.90;;;;;;5075133;28;20000;-82
2022/12/28 03:10:42;;;;;;;;;;;6.60;99.90;;;;;;5092909;28;19938;-83
2022/12/28 03:16:06;;;;;;;;;;;6.60;99.90;;;;;;5093430;28;19919;-82
2022/12/28 03:32:20;;;;;;;;;;;6.70;99.90;;;;;;5093607;28;19969;-81
2022/12/28 03:34:45;;;;;;;;;;;6.70;99.90;;;;;;5093362;28;19920;-81
2022/12/28 03:37:24;;;;;;;;;;;6.70;99.90;;;;;;5107591;28;19955;-81
2022/12/28 03:39:52;;;;;;;;;;;6.70;99.90;;;;;;5113643;28;20002;-82
2022/12/28 03:45:23;;;;;;;;;;;6.70;99.90;;;;;;5113667;28;19973;-81
2022/12/28 03:47:50;;;;;;;;;;;6.70;99.90;;;;;;5113629;28;19912;-82
2022/12/28 03:50:16;;;;;;;;;;;6.70;99.90;;;;;;5113875;28;20410;-81
2022/12/28 03:52:42;;;;;;;;;;;6.70;99.90;;;;;;5113464;28;19973;-82
2022/12/28 03:55:09;;;;;;;;;;;6.70;99.90;;;;;;5113830;28;19974;-82
2022/12/28 03:57:34;;;;;;;;;;;6.70;99.90;;;;;;5113623;28;19914;-82
2022/12/28 04:00:00;;;;;;;;;;;6.70;99.90;;;;;;5113384;28;20320;-82
2022/12/28 04:02:26;;;;;;;;;;;6.60;99.90;;;;;;5114357;28;19933;-81
2022/12/28 04:04:51;;;;;;;;;;;6.60;99.90;;;;;;5114400;28;19915;-81
2022/12/28 04:07:17;;;;;;;;;;;6.60;99.90;;;;;;5113892;28;20396;-81
2022/12/28 04:09:42;;;;;;;;;;;6.50;99.90;;;;;;5113985;28;19973;-82
2022/12/28 04:12:08;;;;;;;;;;;6.50;99.90;;;;;;5107836;28;20257;-80
2022/12/28 04:14:33;;;;;;;;;;;6.40;99.90;;;;;;5093282;28;19909;-81
2022/12/28 04:16:59;;;;;;;;;;;6.40;99.90;;;;;;5093156;28;20355;-81
2022/12/28 04:19:25;;;;;;;;;;;6.30;99.90;;;;;;5093476;28;20017;-82
2022/12/28 04:21:50;;;;;;;;;;;6.30;99.90;;;;;;5092455;28;19908;-82
2022/12/28 04:24:16;;;;;;;;;;;6.20;99.90;;;;;;5074475;28;19999;-82
2022/12/28 04:26:41;;;;;;;;;;;6.20;99.90;;;;;;5093107;28;20311;-83
2022/12/28 04:29:07;;;;;;;;;;;6.10;99.90;;;;;;5092923;28;19912;-82
2022/12/28 04:31:32;;;;;;;;;;;6.10;99.90;;;;;;5092938;28;20001;-81
2022/12/28 04:33:58;;;;;;;;;;;6.00;99.90;;;;;;5073837;28;20392;-81
2022/12/28 04:36:24;;;;;;;;;;;5.90;99.90;;;;;;5092464;28;19908;-81
2022/12/28 04:38:50;;;;;;;;;;;5.90;99.90;;;;;;5092700;28;20007;-79
2022/12/28 04:41:16;;;;;;;;;;;5.90;99.90;;;;;;5113849;28;19908;-80
2022/12/28 04:43:41;;;;;;;;;;;5.80;99.90;;;;;;5115742;28;19912;-85
2022/12/28 04:46:11;;;;;;;;;;;5.80;99.90;;;;;;5115721;28;19900;-80
2022/12/28 04:48:37;;;;;;;;;;;5.70;99.90;;;;;;5097330;28;19908;-80
2022/12/28 04:51:10;;;;;;;;;;;5.60;99.90;;;;;;5115472;28;19939;-80
2022/12/28 04:53:36;;;;;;;;;;;5.60;99.90;;;;;;5115859;28;19954;-81
2022/12/28 04:56:03;;;;;;;;;;;5.60;99.90;;;;;;5088090;28;19916;-79
2022/12/28 04:58:29;;;;;;;;;;;5.60;99.90;;;;;;5101244;28;19908;-80
2022/12/28 05:01:00;;;;;;;;;;;5.60;99.90;;;;;;5098341;28;19908;-81
2022/12/28 05:03:25;;;;;;;;;;;5.60;99.90;;;;;;5096567;28;19962;-80
2022/12/28 05:05:51;;;;;;;;;;;5.60;99.90;;;;;;5096153;28;19908;-81
2022/12/28 05:08:17;;;;;;;;;;;5.60;99.90;;;;;;5094913;28;20262;-80
2022/12/28 05:10:42;;;;;;;;;;;5.60;99.90;;;;;;5095961;28;19909;-80
2022/12/28 05:13:08;;;;;;;;;;;5.60;99.90;;;;;;5094539;28;19909;-81
2022/12/28 05:15:33;;;;;;;;;;;5.50;99.90;;;;;;5094406;28;19919;-80
2022/12/28 05:17:59;;;;;;;;;;;5.60;99.90;;;;;;5076351;28;19957;-80
2022/12/28 05:20:24;;;;;;;;;;;5.60;99.90;;;;;;5094929;28;19909;-80
2022/12/28 05:22:50;;;;;;;;;;;5.60;99.90;;;;;;5094463;28;19979;-81
2022/12/28 05:25:15;;;;;;;;;;;5.70;99.90;;;;;;5076195;28;19916;-80
2022/12/28 05:27:41;;;;;;;;;;;5.70;99.90;;;;;;5094226;28;19951;-81
2022/12/28 05:30:07;;;;;;;;;;;5.70;99.90;;;;;;5108148;28;19951;-81
2022/12/28 05:32:32;;;;;;;;;;;5.70;99.90;;;;;;5113718;28;19908;-80
2022/12/28 05:34:58;;;;;;;;;;;5.80;99.90;;;;;;5114090;28;19998;-80
2022/12/28 05:37:23;;;;;;;;;;;5.80;99.90;;;;;;5114973;28;20333;-81
2022/12/28 05:39:49;;;;;;;;;;;5.80;99.90;;;;;;5114188;28;19911;-82
2022/12/28 05:42:14;;;;;;;;;;;5.90;99.90;;;;;;5096153;28;19908;-81
2022/12/28 05:44:40;;;;;;;;;;;5.90;99.90;;;;;;5114865;28;19955;-81
2022/12/28 05:47:06;;;;;;;;;;;5.90;99.90;;;;;;5112967;28;19919;-82
2022/12/28 05:49:31;;;;;;;;;;;6.00;99.90;;;;;;5095753;28;19915;-83
2022/12/28 05:51:57;;;;;;;;;;;6.10;99.90;;;;;;5113672;28;19937;-84
2022/12/28 05:54:22;;;;;;;;;;;6.10;99.90;;;;;;5110202;28;19935;-84
2022/12/28 05:56:51;;;;;;;;;;;6.10;99.90;;;;;;5092373;28;19978;-85
2022/12/28 05:59:17;;;;;;;;;;;6.20;99.90;;;;;;5092745;28;19916;-81
2022/12/28 06:01:42;;;;;;;;;;;6.20;99.90;;;;;;5074680;28;19912;-83
2022/12/28 06:04:15;;;;;;;;;;;6.30;99.90;;;;;;5091884;28;20530;-82
2022/12/28 06:06:41;;;;;;;;;;;6.20;99.90;;;;;;5092078;28;20246;-81
2022/12/28 06:09:06;;;;;;;;;;;6.30;99.90;;;;;;5091655;28;19916;-80
2022/12/28 06:11:32;;;;;;;;;;;6.30;99.90;;;;;;5092706;28;19908;-82
2022/12/28 06:13:58;;;;;;;;;;;6.30;99.90;;;;;;5091472;28;19908;-82
2022/12/28 06:16:25;;;;;;;;;;;6.40;99.90;;;;;;5074091;28;19908;-83
2022/12/28 06:18:51;;;;;;;;;;;6.40;99.90;;;;;;5073270;28;19947;-86
2022/12/28 06:21:18;;;;;;;;;;;6.40;99.90;;;;;;5092002;28;19930;-85
2022/12/28 06:23:44;;;;;;;;;;;6.40;99.90;;;;;;5091523;28;19908;-85
2022/12/28 06:26:11;;;;;;;;;;;6.40;99.90;;;;;;5091379;28;20409;-85
2022/12/28 06:28:37;;;;;;;;;;;6.40;99.90;;;;;;5091917;28;20377;-85
2022/12/28 06:31:02;;;;;;;;;;;6.40;99.90;;;;;;5090981;28;19961;-84
2022/12/28 06:33:28;;;;;;;;;;;6.40;99.90;;;;;;5073653;28;19945;-83
2022/12/28 06:35:54;;;;;;;;;;;6.40;99.90;;;;;;5095994;28;20062;-80
2022/12/28 06:38:19;;;;;;;;;;;6.40;99.90;;;;;;5093791;28;19942;-80
2022/12/28 06:40:45;;;;;;;;;;;6.40;99.90;;;;;;5112690;28;19908;-81
2022/12/28 06:43:10;;;;;;;;;;;6.40;99.90;;;;;;5112000;28;19911;-82
2022/12/28 06:45:36;;;;;;;;;;;6.40;99.90;;;;;;5115497;28;19912;-83
2022/12/28 06:48:01;;;;;;;;;;;6.40;99.90;;;;;;5114873;28;19919;-82
2022/12/28 06:50:27;;;;;;;;;;;6.40;99.90;;;;;;5114725;28;19952;-82
2022/12/28 06:52:52;;;;;;;;;;;6.40;99.90;;;;;;5114688;28;19908;-88
2022/12/28 06:55:18;;;;;;;;;;;6.40;99.90;;;;;;5115335;28;19974;-83
2022/12/28 06:57:43;;;;;;;;;;;6.40;99.90;;;;;;5114636;28;19908;-83
2022/12/28 07:00:09;;;;;;;;;;;6.40;99.90;;;;;;5114458;28;19915;-82
2022/12/28 07:02:35;;;;;;;;;;;6.40;99.90;;;;;;5115149;28;19912;-83
2022/12/28 07:05:00;;;;;;;;;;;6.40;99.90;;;;;;5114137;28;19916;-83
2022/12/28 07:07:26;;;;;;;;;;;6.50;99.90;;;;;;5092418;28;19927;-83
2022/12/28 07:09:52;;;;;;;;;;;6.50;99.90;;;;;;5092887;28;19920;-89
2022/12/28 07:12:17;;;;;;;;;;;6.50;99.90;;;;;;5092121;28;19954;-83
2022/12/28 07:14:43;;;;;;;;;;;6.50;99.90;;;;;;5076219;28;19993;-83
2022/12/28 07:17:08;;;;;;;;;;;6.50;99.90;;;;;;5093262;28;20307;-83
2022/12/28 07:19:34;;;;;;;;;;;6.50;99.90;;;;;;5094347;28;19916;-83
2022/12/28 07:21:59;;;;;;;;;;;6.50;99.90;;;;;;5093861;28;19908;-84
2022/12/28 07:24:25;;;;;;;;;;;6.50;99.90;;;;;;5094682;28;19938;-84
2022/12/28 07:26:50;;;;;;;;;;;6.50;99.90;;;;;;5094745;28;19908;-84
2022/12/28 07:29:16;;;;;;;;;;;6.50;99.90;;;;;;5094345;28;19939;-84
2022/12/28 07:31:42;;;;;;;;;;;6.50;99.90;;;;;;5094952;28;19930;-84
2022/12/28 07:34:07;;;;;;;;;;;6.60;99.90;;;;;;5093458;28;19912;-83
2022/12/28 07:36:33;;;;;;;;;;;6.50;99.90;;;;;;5094382;28;19908;-83
2022/12/28 07:38:59;;;;;;;;;;;6.60;99.90;;;;;;5093203;28;20014;-84
2022/12/28 07:41:26;;;;;;;;;;;6.60;99.90;;;;;;5093883;28;19908;-84
2022/12/28 07:43:52;;;;;;;;;;;6.60;99.90;;;;;;5093881;28;19961;-83
2022/12/28 07:46:22;;;;;;;;;;;6.70;99.90;;;;;;5092021;28;20286;-84
2022/12/28 07:48:48;;;;;;;;;;;6.70;99.90;;;;;;5081132;28;19923;-84
2022/12/28 07:51:19;;;;;;;;;;;6.80;99.90;;;;;;5071550;28;19912;-84
2022/12/28 07:53:45;;;;;;;;;;;6.80;99.90;;;;;;5071892;28;20277;-83
2022/12/28 07:56:11;;;;;;;;;;;6.80;99.90;;;;;;5071607;28;19915;-83
2022/12/28 07:58:36;;;;;;;;;;;6.90;99.90;;;;;;5073133;28;19908;-82
2022/12/28 08:01:13;;;;;;;;;;;6.90;99.90;;;;;;5071768;28;19908;-82
2022/12/28 08:03:39;;;;;;;;;;;7.00;99.90;;;;;;5073506;28;19915;-81
2022/12/28 08:06:09;;;;;;;;;;;7.00;99.90;;;;;;5074579;28;19908;-81
2022/12/28 08:08:35;;;;;;;;;;;7.00;99.90;;;;;;5092439;28;19920;-81
2022/12/28 08:11:01;;;;;;;;;;;7.00;99.90;;;;;;5093689;28;19908;-81
2022/12/28 08:13:29;;;;;;;;;;;7.00;99.90;;;;;;5093788;28;20015;-81
2022/12/28 08:15:57;;;;;;;;;;;7.00;99.90;;;;;;5093793;28;20371;-81
2022/12/28 08:18:22;;;;;;;;;;;7.00;99.90;;;;;;5093157;28;19914;-82
2022/12/28 08:20:48;;;;;;;;;;;7.10;99.90;;;;;;5093186;28;19994;-81
2022/12/28 08:23:13;;;;;;;;;;;7.10;99.90;;;;;;5093198;28;20002;-81
2022/12/28 08:25:39;;;;;;;;;;;7.10;99.90;;;;;;5112512;28;19916;-81
2022/12/28 08:28:04;;;;;;;;;;;7.10;99.90;;;;;;5113530;28;19966;-81
2022/12/28 08:30:30;;;;;;;;;;;7.20;99.90;;;;;;5114006;28;19914;-81
2022/12/28 08:32:56;;;;;;;;;;;7.20;99.90;;;;;;5114097;28;19912;-81
2022/12/28 08:35:21;;;;;;;;;;;7.20;99.90;;;;;;5113043;28;19915;-81
2022/12/28 08:37:47;;;;;;;;;;;7.30;99.90;;;;;;5102133;28;19938;-83
2022/12/28 08:40:12;;;;;;;;;;;7.30;99.90;;;;;;5085476;28;20014;-83
2022/12/28 08:42:39;;;;;;;;;;;7.30;99.90;;;;;;5112448;28;19990;-83
2022/12/28 08:45:05;;;;;;;;;;;7.30;99.90;;;;;;5112052;28;19915;-83
2022/12/28 08:47:31;;;;;;;;;;;7.30;99.90;;;;;;5112381;28;19912;-82
2022/12/28 08:49:57;;;;;;;;;;;7.40;99.90;;;;;;5112070;28;19915;-82
2022/12/28 08:52:23;;;;;;;;;;;7.30;99.90;;;;;;5112144;28;19908;-81
2022/12/28 08:54:49;;;;;;;;;;;7.40;99.90;;;;;;5121984;28;19957;-81
2022/12/28 08:57:15;;;;;;;;;;;7.40;99.90;;;;;;5108489;28;19960;-81
2022/12/28 08:59:40;;;;;;;;;;;7.40;99.90;;;;;;5098522;28;20327;-83
2022/12/28 09:02:06;;;;;;;;;;;7.40;99.90;;;;;;5075597;28;19912;-81
2022/12/28 09:04:31;;;;;;;;;;;7.40;99.90;;;;;;5092241;28;19908;-81
2022/12/28 09:06:57;;;;;;;;;;;7.50;99.90;;;;;;5090611;28;19920;-80
2022/12/28 09:09:22;;;;;;;;;;;7.50;99.90;;;;;;5091055;28;20329;-81
2022/12/28 09:11:48;;;;;;;;;;;7.50;99.90;;;;;;5092316;28;20363;-79
2022/12/28 09:14:14;;;;;;;;;;;7.50;99.90;;;;;;5101354;28;19912;-80
2022/12/28 09:16:40;;;;;;;;;;;7.50;99.90;;;;;;5108213;28;20365;-80
2022/12/28 09:19:06;;;;;;;;;;;7.50;99.90;;;;;;5096169;28;19911;-79
2022/12/28 09:21:33;;;;;;;;;;;7.50;99.90;;;;;;5119331;28;19910;-80
2022/12/28 09:23:59;;;;;;;;;;;7.50;99.90;;;;;;5118028;28;19907;-80
2022/12/28 09:26:26;;;;;;;;;;;7.50;99.90;;;;;;5100242;28;20241;-80
2022/12/28 09:28:53;;;;;;;;;;;7.50;99.90;;;;;;5112266;28;19916;-80
2022/12/28 09:31:19;;;;;;;;;;;7.60;99.90;;;;;;5110657;28;19912;-79
2022/12/28 09:34:00;;;;;;;;;;;7.60;99.90;;;;;;5111659;28;19908;-80
2022/12/28 09:36:25;;;;;;;;;;;7.60;99.90;;;;;;5083928;28;19916;-81
2022/12/28 09:38:51;;;;;;;;;;;7.60;99.90;;;;;;5091594;28;19915;-80
2022/12/28 09:41:22;;;;;;;;;;;7.60;99.90;;;;;;5092779;28;20002;-81
2022/12/28 09:43:50;;;;;;;;;;;7.70;99.90;;;;;;5093583;28;19909;-79
2022/12/28 09:46:17;;;;;;;;;;;7.80;99.90;;;;;;5094693;28;19912;-81
2022/12/28 09:48:44;;;;;;;;;;;7.80;99.90;;;;;;5090846;28;19916;-80
2022/12/28 09:51:09;;;;;;;;;;;7.90;99.90;;;;;;5090662;28;19908;-80
2022/12/28 09:53:36;;;;;;;;;;;7.90;99.90;;;;;;5090838;28;19935;-80
2022/12/28 09:56:04;;;;;;;;;;;7.90;99.90;;;;;;5091016;28;19908;-81
2022/12/28 09:58:32;;;;;;;;;;;8.00;99.90;;;;;;5090769;28;19958;-79
2022/12/28 10:00:59;;;;;;;;;;;8.00;99.90;;;;;;5090938;28;19908;-80
2022/12/28 10:03:26;;;;;;;;;;;8.00;99.90;;;;;;5090401;28;20539;-80
2022/12/28 10:05:52;;;;;;;;;;;8.10;99.90;;;;;;5090947;28;19930;-80
2022/12/28 10:08:20;;;;;;;;;;;8.20;99.90;;;;;;5090204;28;19927;-80
2022/12/28 10:10:46;;;;;;;;;;;8.20;99.90;;;;;;5090869;28;20293;-81
2022/12/28 10:13:14;;;;;;;;;;;8.30;99.90;;;;;;5090173;28;20250;-80
2022/12/28 10:15:40;;;;;;;;;;;8.30;99.90;;;;;;5091028;28;19920;-79
2022/12/28 10:18:06;;;;;;;;;;;8.40;99.90;;;;;;5092292;28;19924;-85
2022/12/28 10:20:31;;;;;;;;;;;8.50;99.90;;;;;;5102622;28;20336;-80
2022/12/28 10:22:57;;;;;;;;;;;8.50;99.90;;;;;;5110709;28;19918;-80
2022/12/28 10:25:23;;;;;;;;;;;8.60;99.90;;;;;;5102598;28;19908;-80
2022/12/28 10:27:49;;;;;;;;;;;8.70;99.90;;;;;;5104532;28;19977;-80
2022/12/28 10:30:19;;;;;;;;;;;8.80;99.90;;;;;;5096347;28;19919;-80
2022/12/28 10:32:54;;;;;;;;;;;8.80;99.90;;;;;;5093895;28;19955;-80
2022/12/28 10:35:27;;;;;;;;;;;8.90;99.90;;;;;;5093490;28;20368;-80
2022/12/28 10:38:00;;;;;;;;;;;8.90;99.90;;;;;;5094285;28;20014;-79
2022/12/28 10:40:27;;;;;;;;;;;9.00;99.90;;;;;;5093676;28;20068;-79
2022/12/28 10:42:54;;;;;;;;;;;9.00;99.90;;;;;;5094359;28;19908;-80
2022/12/28 10:45:20;;;;;;;;;;;9.00;99.90;;;;;;5093789;28;19912;-80
2022/12/28 10:47:47;;;;;;;;;;;9.00;99.90;;;;;;5075927;28;20098;-80
2022/12/28 10:50:31;;;;;;;;;;;9.10;99.90;;;;;;5093875;28;19916;-80
2022/12/28 10:52:57;;;;;;;;;;;9.10;99.90;;;;;;5094148;28;19908;-78
2022/12/28 10:55:27;;;;;;;;;;;9.10;99.90;;;;;;5075177;28;19919;-79
2022/12/28 10:57:53;;;;;;;;;;;9.10;99.90;;;;;;5094009;28;19912;-78
2022/12/28 11:00:19;;;;;;;;;;;9.20;99.90;;;;;;5093313;28;20277;-79
2022/12/28 11:02:45;;;;;;;;;;;9.20;99.90;;;;;;5094010;28;19930;-78
2022/12/28 11:05:23;;;;;;;;;;;9.30;99.90;;;;;;5075361;28;20308;-85
2022/12/28 11:08:02;;;;;;;;;;;9.40;99.90;;;;;;5094211;28;20375;-78
2022/12/28 11:10:28;;;;;;;;;;;9.50;99.90;;;;;;5074989;28;20383;-79
2022/12/28 11:12:57;;;;;;;;;;;9.60;99.90;;;;;;5094083;28;19963;-79
2022/12/28 11:15:30;;;;;;;;;;;9.80;99.90;;;;;;5075295;28;19908;-79
2022/12/28 11:18:00;;;;;;;;;;;10.00;99.90;;;;;;5093520;28;19916;-79
2022/12/28 11:20:37;;;;;;;;;;;10.10;99.90;;;;;;5074929;28;19961;-79
2022/12/28 11:23:06;;;;;;;;;;;10.30;99.90;;;;;;5093446;28;20325;-79
2022/12/28 11:25:33;;;;;;;;;;;10.40;99.90;;;;;;5093116;28;19914;-80
2022/12/28 11:28:11;;;;;;;;;;;10.60;99.90;;;;;;5093660;28;19950;-79
2022/12/28 11:30:36;;;;;;;;;;;10.60;99.90;;;;;;5092762;28;19916;-80
2022/12/28 11:33:05;;;;;;;;;;;10.70;99.90;;;;;;5075321;28;19931;-80
2022/12/28 11:35:33;;;;;;;;;;;10.80;99.90;;;;;;5093565;28;20438;-79
2022/12/28 11:38:00;;;;;;;;;;;10.80;99.90;;;;;;5093471;28;19939;-79
2022/12/28 11:40:44;;;;;;;;;;;10.90;99.90;;;;;;5092509;28;20341;-80
2022/12/28 11:43:28;;;;;;;;;;;10.90;99.90;;;;;;5093274;28;19908;-80
2022/12/28 11:45:55;;;;;;;;;;;10.90;99.90;;;;;;5075058;28;19912;-80
2022/12/28 11:48:39;;;;;;;;;;;11.00;99.90;;;;;;5092611;28;19916;-80
2022/12/28 11:51:05;;;;;;;;;;;11.10;99.90;;;;;;5092788;28;19919;-80
2022/12/28 11:53:30;;;;;;;;;;;11.10;99.90;;;;;;5092140;28;19908;-80
2022/12/28 11:56:02;;;;;;;;;;;11.20;99.90;;;;;;5092891;28;19951;-80
2022/12/28 11:58:42;;;;;;;;;;;11.30;99.90;;;;;;5092160;28;19920;-81
2022/12/28 12:01:28;;;;;;;;;;;11.30;99.90;;;;;;5092946;28;19908;-79
2022/12/28 12:03:56;;;;;;;;;;;11.40;99.90;;;;;;5092092;28;20007;-80
2022/12/28 12:06:40;;;;;;;;;;;11.40;99.90;;;;;;5092358;28;19908;-78
2022/12/28 12:09:21;;;;;;;;;;;11.40;99.90;;;;;;5092609;28;20266;-79
2022/12/28 12:11:51;;;;;;;;;;;11.40;99.90;;;;;;5092279;28;19912;-79
2022/12/28 12:14:20;;;;;;;;;;;11.40;99.90;;;;;;5092784;28;19916;-80
2022/12/28 12:16:48;;;;;;;;;;;11.40;99.90;;;;;;5092680;28;19987;-79
2022/12/28 12:19:22;;;;;;;;;;;11.40;99.90;;;;;;5092956;28;19914;-83
2022/12/28 12:21:56;;;;;;;;;;;11.50;99.90;;;;;;5092896;28;20292;-78
2022/12/28 12:24:26;;;;;;;;;;;11.50;99.90;;;;;;5092553;28;19914;-79
2022/12/28 12:26:54;;;;;;;;;;;11.50;99.90;;;;;;5092916;28;19908;-78
2022/12/28 12:29:35;;;;;;;;;;;11.50;99.90;;;;;;5092030;28;19916;-79
2022/12/28 12:32:03;;;;;;;;;;;11.50;99.90;;;;;;5092766;28;19912;-79
2022/12/28 12:34:29;;;;;;;;;;;11.50;99.90;;;;;;5092248;28;19908;-79
2022/12/28 12:36:54;;;;;;;;;;;11.40;99.90;;;;;;5092879;28;20467;-79
2022/12/28 12:39:20;;;;;;;;;;;11.40;99.90;;;;;;5092654;28;19965;-80
2022/12/28 12:42:04;;;;;;;;;;;11.40;99.90;;;;;;5093169;28;20365;-79
2022/12/28 12:44:47;;;;;;;;;;;11.30;99.90;;;;;;5092792;28;19908;-80
2022/12/28 12:47:13;;;;;;;;;;;11.30;99.90;;;;;;5075022;28;19962;-79
2022/12/28 12:49:57;;;;;;;;;;;11.40;99.90;;;;;;5092255;28;20403;-79
2022/12/28 12:52:22;;;;;;;;;;;11.40;99.90;;;;;;5092479;28;19915;-79
2022/12/28 12:55:00;;;;;;;;;;;11.30;99.90;;;;;;5074738;28;19968;-79
2022/12/28 12:57:52;;;;;;;;;;;11.30;99.90;;;;;;5092047;28;20302;-80
2022/12/28 13:00:19;;;;;;;;;;;11.20;99.90;;;;;;5089853;28;19909;-84
2022/12/28 13:02:54;;;;;;;;;;;11.20;99.90;;;;;;5092956;28;19915;-79
2022/12/28 13:05:21;;;;;;;;;;;11.10;99.90;;;;;;5092466;28;19954;-82
2022/12/28 13:07:47;;;;;;;;;;;11.10;99.90;;;;;;5092975;28;19974;-79
2022/12/28 13:10:14;;;;;;;;;;;11.10;99.90;;;;;;5092296;28;19995;-77
2022/12/28 13:12:42;;;;;;;;;;;11.20;99.90;;;;;;5090979;28;20466;-78
2022/12/28 13:15:14;;;;;;;;;;;11.10;99.90;;;;;;5091865;28;19931;-78
2022/12/28 13:17:56;;;;;;;;;;;11.20;99.90;;;;;;5091618;28;19934;-79
2022/12/28 13:20:22;;;;;;;;;;;11.10;99.90;;;;;;5091523;28;19912;-79
2022/12/28 13:22:48;;;;;;;;;;;11.20;99.90;;;;;;5091598;28;20264;-78
2022/12/28 13:25:22;;;;;;;;;;;11.10;99.90;;;;;;5091616;28;20015;-79
2022/12/28 13:27:48;;;;;;;;;;;11.10;99.90;;;;;;5073697;28;19957;-79
2022/12/28 13:30:21;;;;;;;;;;;11.10;99.90;;;;;;5092675;28;19920;-78
2022/12/28 13:32:51;;;;;;;;;;;11.10;99.90;;;;;;5092169;28;19912;-79
2022/12/28 13:35:25;;;;;;;;;;;11.10;99.90;;;;;;5092060;28;19912;-80
2022/12/28 13:38:09;;;;;;;;;;;11.00;99.90;;;;;;5092295;28;19927;-79
2022/12/28 13:40:36;;;;;;;;;;;11.10;99.90;;;;;;5073838;28;19912;-79
2022/12/28 13:43:20;;;;;;;;;;;11.00;99.90;;;;;;5092530;28;19908;-78
2022/12/28 13:45:49;;;;;;;;;;;10.90;99.90;;;;;;5091724;28;20353;-78
2022/12/28 13:48:15;;;;;;;;;;;10.80;99.90;;;;;;5091924;28;19912;-79
2022/12/28 13:50:42;;;;;;;;;;;10.70;99.90;;;;;;5091665;28;19908;-79
2022/12/28 13:53:10;;;;;;;;;;;10.60;99.90;;;;;;5093637;28;19926;-79
2022/12/28 13:55:38;;;;;;;;;;;10.50;99.90;;;;;;5095382;28;20428;-79
2022/12/28 13:58:07;;;;;;;;;;;10.40;99.90;;;;;;5095647;28;19919;-79
2022/12/28 14:00:35;;;;;;;;;;;10.40;99.90;;;;;;5095026;28;19947;-78
2022/12/28 14:03:01;;;;;;;;;;;10.30;99.90;;;;;;5078759;28;20332;-79
2022/12/28 14:05:28;;;;;;;;;;;10.30;99.90;;;;;;5097831;28;19918;-78
2022/12/28 14:07:55;;;;;;;;;;;10.20;99.90;;;;;;5096144;28;19920;-77
2022/12/28 14:10:21;;;;;;;;;;;10.10;99.90;;;;;;5095418;28;19920;-78
2022/12/28 14:12:47;;;;;;;;;;;10.10;99.90;;;;;;5095230;28;19952;-78
2022/12/28 14:15:12;;;;;;;;;;;10.10;99.90;;;;;;5096223;28;19908;-77
2022/12/28 14:17:39;;;;;;;;;;;10.10;99.90;;;;;;5096683;28;20290;-77
2022/12/28 14:20:05;;;;;;;;;;;10.10;99.90;;;;;;5102634;28;19947;-79
2022/12/28 14:22:32;;;;;;;;;;;10.10;99.90;;;;;;5082578;28;19942;-80
2022/12/28 14:24:58;;;;;;;;;;;10.10;99.90;;;;;;5101394;28;20028;-76
2022/12/28 14:27:24;;;;;;;;;;;10.10;99.90;;;;;;5116166;28;19908;-84
2022/12/28 14:29:50;;;;;;;;;;;10.20;99.90;;;;;;5119542;28;19970;-76
2022/12/28 14:32:15;;;;;;;;;;;10.20;99.90;;;;;;5113852;28;19912;-79
2022/12/28 14:34:41;;;;;;;;;;;10.20;99.90;;;;;;5125583;28;19915;-78
2022/12/28 14:37:19;;;;;;;;;;;10.20;99.90;;;;;;5100564;28;20003;-77
2022/12/28 14:39:44;;;;;;;;;;;10.20;99.90;;;;;;5115745;28;20157;-76
2022/12/28 14:42:18;;;;;;;;;;;10.20;99.90;;;;;;5111597;28;19987;-77
2022/12/28 14:44:44;;;;;;;;;;;10.20;99.90;;;;;;5109427;28;20142;-77
2022/12/28 14:47:28;;;;;;;;;;;10.20;99.90;;;;;;5115707;28;20353;-77
2022/12/28 14:49:56;;;;;;;;;;;10.20;99.90;;;;;;5106719;28;19950;-78
2022/12/28 14:52:29;;;;;;;;;;;10.20;99.90;;;;;;5110994;28;19912;-79
2022/12/28 14:54:54;;;;;;;;;;;10.30;99.90;;;;;;5110669;28;19930;-78
2022/12/28 14:57:31;;;;;;;;;;;10.30;99.90;;;;;;5105187;28;20345;-78
2022/12/28 14:59:59;;;;;;;;;;;10.30;99.90;;;;;;5115605;28;19915;-80
2022/12/28 15:02:30;;;;;;;;;;;10.30;99.90;;;;;;5096680;28;19908;-85